Terminal Aerodrome Forecast
Issued by NWS

Home | Current Version | Previous Version | Text Only | Print | Product List | Glossary On
Versions: 1 2 3 4 5 6 7 8 9 10 11 12 13 14
888
FTPA31 PHFO 152336
TAFHLI
TAF
PHLI 152336Z 1600/1624 02020KT P6SM VCSH SCT030 BKN045
     FM160400 36014G20KT P6SM VCSH BKN025 BKN045
     FM161000 36010KT 6SM -SHRA BKN025 OVC045
     FM162000 34010KT P6SM VCSH BKN025 BKN045=

USA.gov is the U.S. government's official web portal to all federal, state and local government web resources and services.